createdAt,value
2019-04-20T00:01:26.208Z,102279.29
2019-04-20T00:03:53.654Z,102276.91
2019-04-20T00:06:26.980Z,102280.78
2019-04-20T00:09:04.978Z,102285.60
2019-04-20T00:11:45.956Z,102283.70
2019-04-20T00:14:10.930Z,102282.90
2019-04-20T00:16:38.177Z,102286.64
2019-04-20T00:19:10.652Z,102285.36
2019-04-20T00:21:52.669Z,102281.34
2019-04-20T00:24:27.614Z,102280.13
2019-04-20T00:27:15.810Z,102277.52
2019-04-20T00:29:49.561Z,102277.63
2019-04-20T00:32:15.584Z,102274.77
2019-04-20T00:34:41.515Z,102272.52
2019-04-20T00:37:11.118Z,102278.03
2019-04-20T00:39:43.006Z,102278.26
2019-04-20T00:42:16.790Z,102271.33
2019-04-20T00:44:56.349Z,102276.75
2019-04-20T00:47:34.120Z,102276.46
2019-04-20T00:50:09.233Z,102276.66
2019-04-20T00:52:42.469Z,102269.11
2019-04-20T00:55:02.466Z,102272.63
2019-04-20T00:57:46.378Z,102270.29
2019-04-20T01:00:29.063Z,102266.05
2019-04-20T01:02:54.249Z,102268.94
2019-04-20T01:05:47.855Z,102276.30
2019-04-20T01:08:17.025Z,102276.65
2019-04-20T01:10:54.177Z,102276.84
2019-04-20T01:13:23.847Z,102270.19
2019-04-20T01:16:01.814Z,102281.03
2019-04-20T01:18:29.231Z,102275.30
2019-04-20T01:21:06.869Z,102279.98
2019-04-20T01:23:42.947Z,102280.41
2019-04-20T01:26:12.978Z,102278.63
2019-04-20T01:28:57.669Z,102269.95
2019-04-20T01:31:24.659Z,102271.63
2019-04-20T01:33:58.471Z,102273.36
2019-04-20T01:36:40.649Z,102269.76
2019-04-20T01:39:07.794Z,102269.76
2019-04-20T01:41:28.861Z,102268.59
2019-04-20T01:44:00.643Z,102273.59
2019-04-20T01:46:33.752Z,102266.34
2019-04-20T01:49:11.490Z,102268.84
2019-04-20T01:51:52.453Z,102266.47
2019-04-20T01:54:32.510Z,102270.31
2019-04-20T01:57:06.254Z,102265.10
2019-04-20T01:59:47.019Z,102266.55
2019-04-20T02:02:27.748Z,102267.35
2019-04-20T02:05:09.955Z,102270.19
2019-04-20T02:07:43.457Z,102268.69
2019-04-20T02:10:13.313Z,102268.42
2019-04-20T02:12:49.053Z,102268.75
2019-04-20T02:15:27.799Z,102268.70
2019-04-20T02:18:03.196Z,102272.05
2019-04-20T02:20:44.584Z,102271.16
2019-04-20T02:23:10.574Z,102264.30
2019-04-20T02:25:34.041Z,102268.70
2019-04-20T02:28:22.948Z,102268.14
2019-04-20T02:31:17.087Z,102268.84
2019-04-20T02:33:47.567Z,102263.97
2019-04-20T02:36:33.603Z,102261.72
2019-04-20T02:39:22.090Z,102255.34
2019-04-20T02:41:47.627Z,102254.64
2019-04-20T02:44:30.534Z,102253.18
2019-04-20T02:46:52.672Z,102253.09
2019-04-20T02:49:29.725Z,102252.61
2019-04-20T02:51:52.621Z,102250.31
2019-04-20T02:54:36.754Z,102250.25
2019-04-20T03:01:55.300Z,102256.50
2019-04-20T03:04:20.204Z,102261.59
2019-04-20T03:07:06.790Z,102262.30
2019-04-20T03:09:40.401Z,102264.03
2019-04-20T03:12:18.669Z,102273.11
2019-04-20T03:14:44.997Z,102271.64
2019-04-20T03:17:27.259Z,102268.86
2019-04-20T03:19:48.768Z,102271.27
2019-04-20T03:22:46.610Z,102267.33
2019-04-20T03:25:05.126Z,102267.50
2019-04-20T03:27:59.584Z,102273.86
2019-04-20T03:36:16.235Z,102270.18
2019-04-20T03:38:34.396Z,102263.46
2019-04-20T03:40:59.184Z,102262.98
2019-04-20T03:43:20.205Z,102260.58
2019-04-20T03:45:59.560Z,102254.96
2019-04-20T03:48:41.016Z,102265.71
2019-04-20T03:51:23.558Z,102261.19
2019-04-20T03:54:21.857Z,102257.31
2019-04-20T03:57:29.239Z,102263.03
2019-04-20T04:00:13.146Z,102259.16
2019-04-20T04:05:27.912Z,102264.92
2019-04-20T04:07:58.011Z,102266.97
2019-04-20T04:10:30.469Z,102265.07
2019-04-20T04:13:15.073Z,102266.80
2019-04-20T04:15:52.262Z,102269.52
2019-04-20T04:18:30.979Z,102265.88
2019-04-20T04:21:03.058Z,102264.56
2019-04-20T04:23:44.751Z,102264.09
2019-04-20T04:26:24.707Z,102261.05
2019-04-20T04:28:48.928Z,102264.36
2019-04-20T04:31:33.862Z,102260.73
2019-04-20T04:34:04.833Z,102256.96
2019-04-20T04:36:30.263Z,102259.27
2019-04-20T04:39:20.989Z,102265.92
2019-04-20T04:41:43.572Z,102276.59
2019-04-20T04:44:10.977Z,102273.35
2019-04-20T04:46:34.872Z,102278.16
2019-04-20T04:49:14.961Z,102276.05
2019-04-20T04:51:44.720Z,102279.83
2019-04-20T04:54:24.386Z,102282.13
2019-04-20T04:56:44.633Z,102279.74
2019-04-20T04:59:17.140Z,102286.11
2019-04-20T05:01:51.976Z,102284.02
2019-04-20T05:05:07.066Z,102283.92
2019-04-20T05:07:38.881Z,102285.02
2019-04-20T05:10:01.230Z,102277.78
2019-04-20T05:12:35.351Z,102276.96
2019-04-20T05:15:15.970Z,102279.00
2019-04-20T05:18:04.358Z,102276.05
2019-04-20T05:20:41.540Z,102277.48
2019-04-20T05:23:26.986Z,102271.47
2019-04-20T05:26:13.768Z,102280.90
2019-04-20T05:28:40.518Z,102273.16
2019-04-20T05:31:04.998Z,102277.25
2019-04-20T05:34:03.459Z,102275.21
2019-04-20T05:36:28.067Z,102271.88
2019-04-20T05:39:10.230Z,102270.29
2019-04-20T05:41:33.247Z,102269.52
2019-04-20T05:44:09.465Z,102274.06
2019-04-20T05:46:45.914Z,102274.19
2019-04-20T05:49:25.859Z,102267.25
2019-04-20T05:51:54.715Z,102273.58
2019-04-20T05:54:37.496Z,102275.05
2019-04-20T05:57:11.885Z,102274.66
2019-04-20T05:59:34.981Z,102271.78
2019-04-20T06:02:09.709Z,102274.70
2019-04-20T06:04:53.986Z,102274.84
2019-04-20T06:07:16.809Z,102275.58
2019-04-20T06:09:47.904Z,102275.30
2019-04-20T06:12:19.899Z,102275.43
2019-04-20T06:15:08.289Z,102279.98
2019-04-20T06:21:57.704Z,102282.39
2019-04-20T06:24:42.140Z,102282.45
2019-04-20T06:27:04.877Z,102275.47
2019-04-20T06:29:38.053Z,102273.84
2019-04-20T06:32:28.524Z,102281.43
2019-04-20T06:35:05.054Z,102273.09
2019-04-20T06:37:18.760Z,102274.03
2019-04-20T06:39:54.350Z,102279.40
2019-04-20T06:42:26.525Z,102280.36
2019-04-20T06:45:04.241Z,102279.16
2019-04-20T06:47:41.012Z,102281.39
2019-04-20T06:50:06.307Z,102274.34
2019-04-20T06:53:11.122Z,102272.19
2019-04-20T06:55:38.140Z,102272.66
2019-04-20T06:58:19.850Z,102279.75
2019-04-20T07:00:42.034Z,102281.12
2019-04-20T07:03:18.550Z,102273.67
2019-04-20T07:05:48.998Z,102278.56
2019-04-20T07:08:36.058Z,102272.41
2019-04-20T07:11:02.275Z,102278.19
2019-04-20T07:13:17.713Z,102274.70
2019-04-20T07:16:04.089Z,102277.81
2019-04-20T07:19:02.349Z,102268.53
2019-04-20T07:22:03.144Z,102263.23
2019-04-20T07:24:38.413Z,102266.32
2019-04-20T07:27:00.746Z,102267.20
2019-04-20T07:29:51.901Z,102261.47
2019-04-20T07:32:03.102Z,102256.56
2019-04-20T07:34:41.388Z,102254.31
2019-04-20T07:37:48.499Z,102251.62
2019-04-20T07:39:53.826Z,102245.36
2019-04-20T07:42:39.300Z,102252.84
2019-04-20T07:45:07.633Z,102251.47
2019-04-20T07:47:40.490Z,102253.60
2019-04-20T07:50:09.106Z,102254.39
2019-04-20T07:52:42.234Z,102252.94
2019-04-20T07:55:32.995Z,102256.81
2019-04-20T07:57:47.393Z,102258.11
2019-04-20T08:03:28.361Z,102259.27
2019-04-20T08:05:55.371Z,102252.53
2019-04-20T08:08:38.539Z,102255.28
2019-04-20T08:11:17.942Z,102244.00
2019-04-20T08:13:51.395Z,102242.11
2019-04-20T08:16:35.694Z,102242.03
2019-04-20T08:18:53.937Z,102236.80
2019-04-20T08:21:32.905Z,102236.05
2019-04-20T08:24:01.966Z,102235.12
2019-04-20T08:26:24.733Z,102233.19
2019-04-20T08:29:20.590Z,102234.77
2019-04-20T08:32:17.798Z,102232.80
2019-04-20T08:34:55.931Z,102229.89
2019-04-20T08:37:26.608Z,102222.00
2019-04-20T08:42:40.409Z,102220.77
2019-04-20T08:45:11.217Z,102222.81
2019-04-20T08:48:09.712Z,102221.03
2019-04-20T08:55:23.785Z,102215.72
2019-04-20T08:57:42.459Z,102208.30
2019-04-20T09:00:18.257Z,102210.02
2019-04-20T09:02:55.649Z,102207.95
2019-04-20T09:05:41.164Z,102208.43
2019-04-20T09:08:12.659Z,102205.84
2019-04-20T09:10:49.230Z,102201.06
2019-04-20T09:13:20.265Z,102203.91
2019-04-20T09:15:42.490Z,102195.13
2019-04-20T09:18:27.854Z,102196.00
2019-04-20T09:21:01.218Z,102194.42
2019-04-20T09:23:42.361Z,102187.92
2019-04-20T09:26:20.191Z,102189.83
2019-04-20T09:29:05.302Z,102183.63
2019-04-20T09:31:43.735Z,102181.88
2019-04-20T09:34:34.126Z,102181.38
2019-04-20T09:37:29.394Z,102174.05
2019-04-20T09:40:32.188Z,102178.84
2019-04-20T09:43:13.988Z,102175.64
2019-04-20T09:45:56.437Z,102175.58
2019-04-20T09:48:34.701Z,102169.86
2019-04-20T09:51:20.318Z,102168.27
2019-04-20T09:53:49.348Z,102167.80
2019-04-20T09:56:28.111Z,102167.55
2019-04-20T09:59:12.223Z,102163.56
2019-04-20T10:01:39.529Z,102160.19
2019-04-20T10:04:39.804Z,102160.26
2019-04-20T10:10:23.891Z,102160.00
2019-04-20T10:12:45.457Z,102152.77
2019-04-20T10:15:21.002Z,102148.22
2019-04-20T10:17:51.916Z,102146.09
2019-04-20T10:20:29.653Z,102146.09
2019-04-20T10:23:12.320Z,102141.44
2019-04-20T10:25:58.569Z,102144.73
2019-04-20T10:28:33.579Z,102137.28
2019-04-20T10:31:06.467Z,102128.61
2019-04-20T10:33:37.946Z,102124.67
2019-04-20T10:36:19.522Z,102132.54
2019-04-20T10:38:52.684Z,102130.55
2019-04-20T10:41:37.038Z,102127.33
2019-04-20T10:43:58.785Z,102127.84
2019-04-20T10:46:31.125Z,102128.72
2019-04-20T10:49:05.967Z,102128.55
2019-04-20T10:51:42.348Z,102132.72
2019-04-20T10:54:16.800Z,102131.95
2019-04-20T10:56:49.913Z,102134.18
2019-04-20T10:59:23.556Z,102127.20
2019-04-20T11:01:55.970Z,102128.02
2019-04-20T11:04:28.604Z,102118.67
2019-04-20T11:07:02.855Z,102121.98
2019-04-20T11:09:39.050Z,102117.22
2019-04-20T11:12:12.453Z,102120.19
2019-04-20T11:14:47.961Z,102112.05
2019-04-20T11:17:20.735Z,102112.57
2019-04-20T11:19:59.667Z,102112.17
2019-04-20T11:22:34.629Z,102104.47
2019-04-20T11:25:06.156Z,102105.09
2019-04-20T11:27:40.552Z,102100.39
2019-04-20T11:30:16.053Z,102101.09
2019-04-20T11:32:53.719Z,102094.82
2019-04-20T11:35:32.689Z,102094.55
2019-04-20T11:38:00.927Z,102091.97
2019-04-20T11:40:33.190Z,102090.87
2019-04-20T11:43:05.796Z,102087.81
2019-04-20T11:45:38.516Z,102090.42
2019-04-20T11:48:13.673Z,102079.23
2019-04-20T11:50:45.481Z,102077.16
2019-04-20T11:53:17.464Z,102074.05
2019-04-20T11:55:49.597Z,102066.59
2019-04-20T11:58:21.797Z,102058.58
2019-04-20T12:01:01.232Z,102060.95
2019-04-20T12:03:33.315Z,102062.39
2019-04-20T12:06:04.981Z,102053.52
2019-04-20T12:08:38.518Z,102046.66
2019-04-20T12:11:22.804Z,102047.44
2019-04-20T12:13:42.746Z,102039.79
2019-04-20T12:16:14.992Z,102039.44
2019-04-20T12:18:46.519Z,102044.42
2019-04-20T12:21:21.009Z,102044.44
2019-04-20T12:23:54.134Z,102036.45
2019-04-20T12:26:27.223Z,102030.17
2019-04-20T12:28:59.236Z,102029.72
2019-04-20T12:31:31.492Z,102031.47
2019-04-20T12:34:04.740Z,102030.81
2019-04-20T12:36:37.357Z,102027.37
2019-04-20T12:39:11.479Z,102023.26
2019-04-20T12:41:50.468Z,102021.80
2019-04-20T12:44:17.723Z,102010.91
2019-04-20T12:46:49.951Z,102021.22
2019-04-20T12:49:23.422Z,102009.78
2019-04-20T12:52:00.256Z,102012.66
2019-04-20T12:54:29.069Z,102013.75
2019-04-20T12:57:00.534Z,102006.13
2019-04-20T12:59:33.678Z,102007.83
2019-04-20T13:02:07.018Z,102006.00
2019-04-20T13:04:39.489Z,102006.39
2019-04-20T13:07:12.142Z,102002.56
2019-04-20T13:09:52.677Z,101995.42
2019-04-20T13:12:36.268Z,101985.19
2019-04-20T13:15:28.773Z,101986.66
2019-04-20T13:18:01.556Z,101989.37
2019-04-20T13:20:34.088Z,101979.00
2019-04-20T13:23:08.894Z,101972.59
2019-04-20T13:25:43.809Z,101983.78
2019-04-20T13:28:16.964Z,101975.34
2019-04-20T13:30:48.220Z,101977.45
2019-04-20T13:33:19.839Z,101971.96
2019-04-20T13:35:52.347Z,101959.95
2019-04-20T13:38:23.768Z,101967.73
2019-04-20T13:40:55.853Z,101965.46
2019-04-20T13:43:27.940Z,101966.39
2019-04-20T13:46:00.464Z,101964.27
2019-04-20T13:48:33.054Z,101959.97
2019-04-20T13:51:05.559Z,101955.80
2019-04-20T13:53:37.186Z,101946.00
2019-04-20T13:56:16.722Z,101947.81
2019-04-20T13:59:05.803Z,101954.61
2019-04-20T14:01:53.705Z,101951.72
2019-04-20T14:04:32.954Z,101948.34
2019-04-20T14:07:09.382Z,101936.17
2019-04-20T14:09:51.171Z,101940.48
2019-04-20T14:12:32.407Z,101934.81
2019-04-20T14:15:02.901Z,101930.71
2019-04-20T14:17:37.315Z,101926.72
2019-04-20T14:20:14.719Z,101924.45
2019-04-20T14:22:52.246Z,101926.55
2019-04-20T14:25:26.999Z,101917.05
2019-04-20T14:28:00.704Z,101918.81
2019-04-20T14:30:33.070Z,101914.83
2019-04-20T14:33:05.215Z,101916.08
2019-04-20T14:35:36.978Z,101917.06
2019-04-20T14:38:08.203Z,101916.36
2019-04-20T14:40:40.007Z,101915.43
2019-04-20T14:43:15.041Z,101913.33
2019-04-20T14:45:52.404Z,101908.34
2019-04-20T14:48:24.908Z,101905.38
2019-04-20T14:50:57.573Z,101903.70
2019-04-20T14:53:37.831Z,101904.41
2019-04-20T14:57:01.468Z,101899.48
2019-04-20T14:59:51.607Z,101894.03
2019-04-20T15:02:28.022Z,101896.02
2019-04-20T15:05:07.295Z,101888.00
2019-04-20T15:07:38.657Z,101886.58
2019-04-20T15:10:10.997Z,101884.02
2019-04-20T15:12:49.925Z,101896.37
2019-04-20T15:15:16.611Z,101881.67
2019-04-20T15:17:59.616Z,101887.02
2019-04-20T15:20:39.495Z,101879.12
2019-04-20T15:23:21.706Z,101876.66
2019-04-20T15:25:54.831Z,101867.42
2019-04-20T15:28:30.082Z,101870.09
2019-04-20T15:31:02.503Z,101864.09
2019-04-20T15:33:34.797Z,101864.55
2019-04-20T15:36:08.275Z,101862.73
2019-04-20T15:38:40.848Z,101863.01
2019-04-20T15:41:14.951Z,101860.50
2019-04-20T15:43:45.711Z,101857.06
2019-04-20T15:46:19.388Z,101864.08
2019-04-20T15:48:53.148Z,101848.33
2019-04-20T15:51:25.761Z,101860.91
2019-04-20T15:53:58.135Z,101852.02
2019-04-20T15:56:29.286Z,101852.07
2019-04-20T15:59:02.148Z,101852.55
2019-04-20T16:01:40.674Z,101849.92
2019-04-20T16:04:30.650Z,101848.03
2019-04-20T16:06:59.163Z,101846.73
2019-04-20T16:09:32.378Z,101848.94
2019-04-20T16:12:04.729Z,101838.23
2019-04-20T16:14:36.272Z,101848.58
2019-04-20T16:17:10.564Z,101845.17
2019-04-20T16:19:51.289Z,101837.83
2019-04-20T16:22:15.830Z,101844.53
2019-04-20T16:24:51.679Z,101843.36
2019-04-20T16:27:38.036Z,101838.71
2019-04-20T16:30:11.681Z,101831.20
2019-04-20T16:32:44.860Z,101833.79
2019-04-20T16:35:17.953Z,101839.23
2019-04-20T16:37:51.130Z,101833.04
2019-04-20T16:40:25.321Z,101836.08
2019-04-20T16:42:58.425Z,101833.80
2019-04-20T16:45:29.772Z,101833.16
2019-04-20T16:48:02.155Z,101829.74
2019-04-20T16:50:35.196Z,101832.43
2019-04-20T16:53:06.726Z,101822.20
2019-04-20T16:55:38.886Z,101828.37
2019-04-20T16:58:11.056Z,101829.03
2019-04-20T17:00:43.260Z,101829.36
2019-04-20T17:03:17.314Z,101829.19
2019-04-20T17:05:51.305Z,101829.66
2019-04-20T17:08:22.887Z,101829.83
2019-04-20T17:10:55.958Z,101821.20
2019-04-20T17:13:34.806Z,101815.33
2019-04-20T17:16:01.789Z,101819.22
2019-04-20T17:18:33.973Z,101815.30
2019-04-20T17:21:14.018Z,101824.59
2019-04-20T17:23:41.768Z,101820.83
2019-04-20T17:26:13.122Z,101819.41
2019-04-20T17:28:57.630Z,101824.53
2019-04-20T17:31:57.714Z,101827.38
2019-04-20T17:34:44.277Z,101832.12
2019-04-20T17:37:02.709Z,101832.12
2019-04-20T17:39:53.993Z,101828.56
2019-04-20T17:42:27.266Z,101832.48
2019-04-20T17:44:52.959Z,101830.45
2019-04-20T17:47:39.133Z,101836.15
2019-04-20T17:50:13.146Z,101831.75
2019-04-20T17:52:40.348Z,101827.64
2019-04-20T17:55:03.355Z,101827.71
2019-04-20T17:57:35.251Z,101828.53
2019-04-20T18:00:19.453Z,101829.22
2019-04-20T18:03:08.361Z,101829.81
2019-04-20T18:06:06.197Z,101832.11
2019-04-20T18:08:42.416Z,101835.23
2019-04-20T18:11:05.685Z,101831.88
2019-04-20T18:13:34.017Z,101835.25
2019-04-20T18:16:29.740Z,101840.48
2019-04-20T18:19:06.154Z,101846.49
2019-04-20T18:21:43.430Z,101849.38
2019-04-20T18:24:38.724Z,101846.37
2019-04-20T18:27:07.052Z,101849.43
2019-04-20T18:29:43.040Z,101848.02
2019-04-20T18:32:20.475Z,101846.08
2019-04-20T18:34:59.893Z,101854.66
2019-04-20T18:37:31.058Z,101854.17
2019-04-20T18:40:09.108Z,101851.46
2019-04-20T18:42:40.699Z,101853.57
2019-04-20T18:45:28.467Z,101853.47
2019-04-20T18:48:07.637Z,101849.94
2019-04-20T18:50:27.691Z,101852.89
2019-04-20T18:52:54.140Z,101852.72
2019-04-20T18:55:33.276Z,101845.40
2019-04-20T18:57:59.400Z,101849.44
2019-04-20T19:00:34.755Z,101849.14
2019-04-20T19:03:12.029Z,101851.12
2019-04-20T19:05:39.918Z,101852.18
2019-04-20T19:08:13.989Z,101855.70
2019-04-20T19:10:54.139Z,101865.18
2019-04-20T19:13:36.400Z,101865.02
2019-04-20T19:16:32.966Z,101866.73
2019-04-20T19:19:25.743Z,101872.97
2019-04-20T19:21:46.028Z,101873.98
2019-04-20T19:24:26.028Z,101869.72
2019-04-20T19:27:00.124Z,101872.11
2019-04-20T19:29:35.629Z,101866.36
2019-04-20T19:32:19.521Z,101869.91
2019-04-20T19:34:47.462Z,101869.97
2019-04-20T19:37:16.766Z,101866.02
2019-04-20T19:40:02.394Z,101870.89
2019-04-20T19:42:34.680Z,101871.69
2019-04-20T19:45:27.596Z,101862.14
2019-04-20T19:47:51.299Z,101867.23
2019-04-20T19:50:41.355Z,101871.14
2019-04-20T19:53:19.939Z,101867.52
2019-04-20T19:55:45.184Z,101863.95
2019-04-20T19:58:13.972Z,101863.52
2019-04-20T20:00:54.212Z,101869.58
2019-04-20T20:03:27.904Z,101866.23
2019-04-20T20:06:00.027Z,101863.39
2019-04-20T20:08:34.833Z,101856.02
2019-04-20T20:11:09.561Z,101862.04
2019-04-20T20:13:46.094Z,101858.72
2019-04-20T20:16:20.209Z,101865.57
2019-04-20T20:19:02.777Z,101863.99
2019-04-20T20:21:40.566Z,101871.98
2019-04-20T20:27:31.697Z,101869.07
2019-04-20T20:30:12.009Z,101861.47
2019-04-20T20:33:05.882Z,101858.36
2019-04-20T20:35:43.508Z,101854.16
2019-04-20T20:38:22.804Z,101854.06
2019-04-20T20:41:05.830Z,101853.58
2019-04-20T20:43:46.963Z,101859.37
2019-04-20T20:46:18.493Z,101862.14
2019-04-20T20:52:36.824Z,101873.20
2019-04-20T20:55:03.776Z,101876.72
2019-04-20T20:57:44.883Z,101872.84
2019-04-20T21:00:24.146Z,101873.42
2019-04-20T21:02:50.543Z,101876.60
2019-04-20T21:05:19.680Z,101874.83
2019-04-20T21:08:51.654Z,101872.97
2019-04-20T21:11:44.625Z,101874.88
2019-04-20T21:14:22.178Z,101876.44
2019-04-20T21:17:00.392Z,101877.00
2019-04-20T21:19:41.852Z,101881.20
2019-04-20T21:22:05.981Z,101882.14
2019-04-20T21:24:33.842Z,101877.32
2019-04-20T21:27:11.298Z,101882.18
2019-04-20T21:29:44.393Z,101881.78
2019-04-20T21:32:16.562Z,101885.80
2019-04-20T21:34:53.322Z,101887.08
2019-04-20T21:38:25.010Z,101879.09
2019-04-20T21:41:03.410Z,101882.48
2019-04-20T21:43:40.383Z,101880.66
2019-04-20T21:46:11.919Z,101876.74
2019-04-20T21:48:58.812Z,101872.77
2019-04-20T21:51:30.377Z,101872.02
2019-04-20T21:53:51.909Z,101875.66
2019-04-20T21:56:23.867Z,101874.42
2019-04-20T21:59:00.474Z,101874.88
2019-04-20T22:01:35.709Z,101870.91
2019-04-20T22:04:03.718Z,101875.75
2019-04-20T22:06:38.152Z,101871.36
2019-04-20T22:09:14.641Z,101877.56
2019-04-20T22:11:49.507Z,101873.61
2019-04-20T22:14:25.793Z,101868.75
2019-04-20T22:16:58.364Z,101867.85
2019-04-20T22:19:41.046Z,101869.61
2019-04-20T22:22:15.136Z,101869.55
2019-04-20T22:24:50.578Z,101867.78
2019-04-20T22:27:18.506Z,101867.30
2019-04-20T22:29:44.087Z,101867.23
2019-04-20T22:32:18.383Z,101864.13
2019-04-20T22:34:59.210Z,101863.65
2019-04-20T22:37:28.671Z,101864.92
2019-04-20T22:40:01.204Z,101855.70
2019-04-20T22:42:42.968Z,101853.92
2019-04-20T22:45:11.823Z,101862.73
2019-04-20T22:47:42.641Z,101857.39
2019-04-20T22:50:32.006Z,101855.17
2019-04-20T22:52:58.122Z,101849.88
2019-04-20T22:55:48.827Z,101848.08
2019-04-20T22:58:03.323Z,101850.25
2019-04-20T23:00:39.622Z,101845.38
2019-04-20T23:03:03.191Z,101843.13
2019-04-20T23:05:36.354Z,101837.80
2019-04-20T23:08:08.684Z,101835.96
2019-04-20T23:10:43.133Z,101836.34
2019-04-20T23:13:13.773Z,101826.61
2019-04-20T23:15:50.085Z,101827.89
2019-04-20T23:18:20.211Z,101831.36
2019-04-20T23:20:55.453Z,101824.26
2019-04-20T23:23:28.980Z,101822.44
2019-04-20T23:26:00.839Z,101822.39
2019-04-20T23:28:33.348Z,101824.88
2019-04-20T23:31:11.235Z,101815.55
2019-04-20T23:33:39.900Z,101822.54
2019-04-20T23:36:14.539Z,101808.92
2019-04-20T23:38:49.988Z,101816.02
2019-04-20T23:41:20.183Z,101813.77
2019-04-20T23:44:23.165Z,101807.11
2019-04-20T23:47:21.922Z,101805.78
2019-04-20T23:50:12.329Z,101806.20
2019-04-20T23:52:57.949Z,101809.20
2019-04-20T23:55:07.756Z,101822.65
2019-04-20T23:57:38.257Z,101817.47
